createdAt,value
2023-05-01T00:02:52.563Z,97.73
2023-05-01T00:12:53.660Z,99.50
2023-05-01T00:22:54.242Z,97.56
2023-05-01T00:32:55.180Z,98.17
2023-05-01T00:42:55.978Z,98.56
2023-05-01T00:52:56.780Z,96.17
2023-05-01T01:02:57.630Z,98.18
2023-05-01T01:12:58.701Z,98.49
2023-05-01T01:22:59.301Z,96.61
2023-05-01T01:33:00.210Z,99.05
2023-05-01T01:43:00.876Z,98.40
2023-05-01T01:53:01.922Z,95.94
2023-05-01T02:03:02.474Z,95.36
2023-05-01T02:13:03.202Z,95.69
2023-05-01T02:23:03.906Z,95.70
2023-05-01T02:33:04.659Z,97.13
2023-05-01T02:43:05.414Z,97.22
2023-05-01T02:53:06.427Z,97.12
2023-05-01T03:03:07.312Z,96.77
2023-05-01T03:13:07.852Z,99.84
2023-05-01T03:23:08.718Z,99.49
2023-05-01T03:33:09.413Z,100.00
2023-05-01T03:43:10.192Z,97.44
2023-05-01T03:53:10.809Z,97.82
2023-05-01T04:03:11.528Z,97.16
2023-05-01T04:13:12.135Z,98.77
2023-05-01T04:23:12.809Z,98.93
2023-05-01T04:33:13.544Z,99.74
2023-05-01T04:43:14.313Z,100.00
2023-05-01T04:53:15.261Z,98.94
2023-05-01T05:03:15.891Z,98.32
2023-05-01T05:13:16.508Z,93.81
2023-05-01T05:23:17.330Z,80.62
2023-05-01T05:33:18.305Z,75.25
2023-05-01T05:43:19.305Z,68.49
2023-05-01T05:53:20.577Z,65.82
2023-05-01T06:03:21.906Z,61.17
2023-05-01T06:13:23.153Z,59.74
2023-05-01T06:23:24.860Z,57.97
2023-05-01T06:33:26.192Z,56.02
2023-05-01T06:43:27.545Z,53.27
2023-05-01T06:53:29.027Z,50.41
2023-05-01T07:03:30.312Z,40.61
2023-05-01T07:13:32.329Z,36.85
2023-05-01T07:23:34.119Z,39.44
2023-05-01T07:33:36.081Z,42.56
2023-05-01T07:43:37.673Z,37.19
2023-05-01T07:53:39.574Z,33.17
2023-05-01T08:13:43.553Z,31.00
2023-05-01T08:23:45.649Z,30.21
2023-05-01T08:33:47.531Z,31.19
2023-05-01T08:43:49.564Z,31.63
2023-05-01T08:53:51.272Z,30.95
2023-05-01T09:03:53.267Z,32.71
2023-05-01T09:13:54.744Z,31.61
2023-05-01T09:23:56.272Z,33.51
2023-05-01T09:33:57.954Z,33.07
2023-05-01T09:43:59.573Z,33.99
2023-05-01T09:54:01.295Z,34.32
2023-05-01T10:04:02.857Z,35.17
2023-05-01T10:14:04.639Z,36.08
2023-05-01T10:34:07.712Z,36.25
2023-05-01T10:44:09.084Z,36.55
2023-05-01T10:54:10.658Z,38.09
2023-05-01T11:04:13.560Z,38.33
2023-05-01T11:14:15.224Z,38.04
2023-05-01T11:24:15.557Z,37.55
2023-05-01T11:34:17.074Z,38.39
2023-05-01T11:44:18.549Z,38.42
2023-05-01T11:54:19.866Z,38.56
2023-05-01T12:04:21.970Z,38.06
2023-05-01T12:14:23.334Z,37.63
2023-05-01T12:24:24.559Z,38.50
2023-05-01T12:34:26.493Z,37.70
2023-05-01T12:44:27.598Z,38.03
2023-05-01T12:54:29.113Z,37.37
2023-05-01T13:04:30.592Z,37.00
2023-05-01T13:24:33.278Z,36.51
2023-05-01T13:34:34.793Z,36.39
2023-05-01T13:44:36.343Z,35.57
2023-05-01T13:54:37.734Z,35.26
2023-05-01T14:04:39.305Z,34.96
2023-05-01T14:14:40.786Z,34.31
2023-05-01T14:24:42.335Z,34.23
2023-05-01T14:34:43.844Z,33.68
2023-05-01T14:44:45.407Z,33.68
2023-05-01T14:54:47.029Z,32.83
2023-05-01T15:04:48.562Z,32.85
2023-05-01T15:14:50.143Z,32.63
2023-05-01T15:24:51.865Z,33.27
2023-05-01T15:34:53.261Z,33.12
2023-05-01T15:44:54.881Z,33.50
2023-05-01T15:54:56.531Z,33.92
2023-05-01T16:04:58.119Z,34.15
2023-05-01T16:14:59.678Z,34.88
2023-05-01T16:25:01.366Z,34.14
2023-05-01T16:35:02.848Z,34.41
2023-05-01T16:45:05.328Z,34.34
2023-05-01T16:55:05.922Z,34.06
2023-05-01T17:05:07.420Z,34.35
2023-05-01T17:15:08.957Z,34.43
2023-05-01T17:25:10.818Z,34.88
2023-05-01T17:35:11.918Z,34.07
2023-05-01T17:45:13.416Z,34.60
2023-05-01T17:55:17.191Z,35.05
2023-05-01T18:05:16.264Z,34.95
2023-05-01T18:25:19.286Z,35.18
2023-05-01T18:35:20.879Z,35.75
2023-05-01T18:45:22.367Z,35.91
2023-05-01T18:55:23.709Z,35.94
2023-05-01T19:15:26.542Z,41.04
2023-05-01T19:25:27.954Z,39.54
2023-05-01T19:35:29.303Z,39.17
2023-05-01T19:45:30.581Z,41.94
2023-05-01T19:55:32.077Z,43.30
2023-05-01T20:05:33.383Z,44.95
2023-05-01T20:15:34.567Z,45.68
2023-05-01T20:25:35.428Z,48.15
2023-05-01T20:35:36.577Z,48.72
2023-05-01T20:45:37.736Z,49.72
2023-05-01T20:55:38.810Z,51.66
2023-05-01T21:05:40.150Z,52.21
2023-05-01T21:15:41.146Z,52.75
2023-05-01T21:35:43.310Z,53.49
2023-05-01T21:45:44.403Z,54.79
2023-05-01T21:55:45.412Z,54.23
2023-05-01T22:05:46.745Z,55.68
2023-05-01T22:15:47.468Z,55.85
2023-05-01T22:25:48.429Z,55.81
2023-05-01T22:35:49.416Z,56.80
2023-05-01T22:45:50.387Z,56.84
2023-05-01T23:05:52.388Z,57.57
2023-05-01T23:15:53.431Z,58.35
2023-05-01T23:25:54.325Z,58.42
2023-05-01T23:35:55.688Z,59.56
2023-05-01T23:45:56.324Z,60.27
2023-05-01T23:55:57.280Z,62.19
